Time;durP1;ratioP1;P1;durP2;ratioP2;P2;SDS_P1;SDS_P2;PMS_P1;PMS_P2;Temp;Humidity;BMP_temperature;BMP_pressure;BME280_temperature;BME280_humidity;BME280_pressure;Samples;Min_cycle;Max_cycle;Signal;HPM_P1;HPM_P2
2023/11/25 00:00:28;;;;;;;;;;;;;;;4.17;100.00;96654.07;135335;1281;22530;-67
2023/11/25 00:03:54;;;;;;;;;;;;;;;4.11;100.00;96660.95;135333;1281;22539;-69
2023/11/25 00:06:56;;;;;;;;;;;;;;;4.12;100.00;96661.01;135206;1281;24208;-69
2023/11/25 00:09:59;;;;;;;;;;;;;;;4.09;100.00;96662.79;135325;1264;22517;-69
2023/11/25 00:13:05;;;;;;;;;;;;;;;4.07;100.00;96654.48;135318;1281;25440;-69
2023/11/25 00:16:08;;;;;;;;;;;;;;;4.10;100.00;96648.00;135279;1281;22549;-70
2023/11/25 00:19:11;;;;;;;;;;;;;;;4.16;100.00;96651.77;135295;1262;22512;-67
2023/11/25 00:22:13;;;;;;;;;;;;;;;4.10;100.00;96649.21;135290;1281;24890;-68
2023/11/25 00:25:18;;;;;;;;;;;;;;;4.19;100.00;96652.59;135288;1261;22510;-69
2023/11/25 00:28:21;;;;;;;;;;;;;;;4.30;100.00;96655.29;133492;1281;1003933;-68
2023/11/25 00:31:24;;;;;;;;;;;;;;;4.22;100.00;96661.89;67613;1281;1016380;-68
2023/11/25 00:34:27;;;;;;;;;;;;;;;4.20;100.00;96662.76;67627;1281;1016403;-69
2023/11/25 00:37:29;;;;;;;;;;;;;;;4.20;100.00;96663.77;67638;1281;1016424;-68
2023/11/25 00:40:32;;;;;;;;;;;;;;;4.22;100.00;96662.61;67632;1281;1016315;-68
2023/11/25 00:43:36;;;;;;;;;;;;;;;4.21;100.00;96660.80;67629;1281;1016479;-68
2023/11/25 00:46:39;;;;;;;;;;;;;;;4.15;100.00;96655.29;67604;1281;1016439;-68
2023/11/25 00:49:43;;;;;;;;;;;;;;;4.11;100.00;96654.88;67652;1281;1016034;-67
2023/11/25 00:52:47;;;;;;;;;;;;;;;4.14;100.00;96658.98;67619;1281;1016364;-67
2023/11/25 00:55:50;;;;;;;;;;;;;;;4.10;100.00;96654.92;67613;1281;1016156;-68
2023/11/25 00:58:52;;;;;;;;;;;;;;;4.14;100.00;96649.67;67621;1281;1016284;-68
2023/11/25 01:01:55;;;;;;;;;;;;;;;4.15;100.00;96650.59;67625;1281;1019857;-67
2023/11/25 01:04:57;;;;;;;;;;;;;;;4.13;100.00;96651.57;67642;1281;1016652;-67
2023/11/25 01:08:00;;;;;;;;;;;;;;;4.07;100.00;96655.98;67636;1281;1016518;-68
2023/11/25 01:11:03;;;;;;;;;;;;;;;4.08;100.00;96653.20;67587;1281;1016487;-69
2023/11/25 01:14:06;;;;;;;;;;;;;;;4.17;100.00;96652.56;67642;1281;1016145;-69
2023/11/25 01:17:08;;;;;;;;;;;;;;;4.20;100.00;96650.46;67596;1281;1016409;-68
2023/11/25 01:20:13;;;;;;;;;;;;;;;4.11;100.00;96640.55;67569;1281;1016153;-68
2023/11/25 01:23:16;;;;;;;;;;;;;;;3.98;100.00;96645.39;67621;1281;1016149;-69
2023/11/25 01:26:18;;;;;;;;;;;;;;;3.98;100.00;96641.98;67603;1281;1016501;-69
2023/11/25 01:29:22;;;;;;;;;;;;;;;3.98;100.00;96637.41;67567;1281;1016463;-69
2023/11/25 01:32:25;;;;;;;;;;;;;;;3.99;100.00;96634.91;67592;1281;1016473;-68
2023/11/25 01:35:27;;;;;;;;;;;;;;;3.97;100.00;96639.05;67637;1281;1016524;-69
2023/11/25 01:38:30;;;;;;;;;;;;;;;3.94;100.00;96637.41;67661;1281;1016481;-68
2023/11/25 01:41:33;;;;;;;;;;;;;;;3.91;100.00;96639.35;67575;1281;1016271;-67
2023/11/25 01:44:35;;;;;;;;;;;;;;;3.94;100.00;96635.84;67573;1281;1016797;-68
2023/11/25 01:47:38;;;;;;;;;;;;;;;3.94;100.00;96634.95;67645;1281;1017166;-68
2023/11/25 01:50:40;;;;;;;;;;;;;;;3.90;100.00;96632.27;67625;1281;1016420;-68
2023/11/25 01:53:43;;;;;;;;;;;;;;;4.02;100.00;96629.89;67582;1281;1018866;-69
2023/11/25 01:56:45;;;;;;;;;;;;;;;3.99;100.00;96637.02;67626;1281;1016477;-68
2023/11/25 01:59:48;;;;;;;;;;;;;;;4.05;100.00;96633.52;67630;1281;1016594;-69
2023/11/25 02:02:50;;;;;;;;;;;;;;;4.07;100.00;96633.73;67649;1281;1015852;-69
2023/11/25 02:05:53;;;;;;;;;;;;;;;4.10;100.00;96641.27;67602;1281;1016316;-68
2023/11/25 02:08:56;;;;;;;;;;;;;;;4.09;100.00;96648.77;67610;1281;1016213;-69
2023/11/25 02:11:59;;;;;;;;;;;;;;;4.11;100.00;96648.11;67643;1281;1017883;-68
2023/11/25 02:15:02;;;;;;;;;;;;;;;4.21;100.00;96650.91;67589;1281;1016466;-69
2023/11/25 02:18:05;;;;;;;;;;;;;;;4.24;100.00;96647.25;67632;1281;1016190;-69
2023/11/25 02:21:09;;;;;;;;;;;;;;;4.20;100.00;96648.02;67598;1281;1016461;-69
2023/11/25 02:24:12;;;;;;;;;;;;;;;4.26;100.00;96651.05;67596;1281;1016362;-69
2023/11/25 02:27:14;;;;;;;;;;;;;;;4.30;100.00;96646.31;67616;1281;1016789;-68
2023/11/25 02:30:17;;;;;;;;;;;;;;;4.32;100.00;96645.27;67586;1281;1016378;-69
2023/11/25 02:33:21;;;;;;;;;;;;;;;4.28;100.00;96650.59;67633;1281;1016532;-68
2023/11/25 02:36:24;;;;;;;;;;;;;;;4.33;100.00;96652.84;67636;1281;1016364;-69
2023/11/25 02:39:28;;;;;;;;;;;;;;;4.49;100.00;96654.61;67614;1281;1016439;-68
2023/11/25 02:42:31;;;;;;;;;;;;;;;4.48;100.00;96656.05;67616;1281;1016475;-69
2023/11/25 02:45:33;;;;;;;;;;;;;;;4.52;100.00;96661.02;67564;1281;1016440;-69
2023/11/25 02:48:36;;;;;;;;;;;;;;;4.33;100.00;96665.30;67582;1281;1016343;-69
2023/11/25 02:51:38;;;;;;;;;;;;;;;4.35;100.00;96670.88;67596;1281;1018976;-69
2023/11/25 02:54:41;;;;;;;;;;;;;;;4.35;100.00;96671.73;67636;1281;1019008;-68
2023/11/25 02:57:44;;;;;;;;;;;;;;;4.34;100.00;96665.75;67608;1281;1016275;-69
2023/11/25 03:00:47;;;;;;;;;;;;;;;4.41;100.00;96666.15;67572;1281;1018828;-68
2023/11/25 03:03:53;;;;;;;;;;;;;;;4.39;100.00;96667.34;67591;1281;1016105;-69
2023/11/25 03:06:58;;;;;;;;;;;;;;;4.41;100.00;96666.84;67590;1281;1016449;-68
2023/11/25 03:10:00;;;;;;;;;;;;;;;4.32;100.00;96674.88;67564;1281;1016169;-69
2023/11/25 03:13:04;;;;;;;;;;;;;;;4.20;100.00;96677.49;67632;1281;1016507;-69
2023/11/25 03:16:07;;;;;;;;;;;;;;;4.23;100.00;96671.88;67622;1281;1016251;-69
2023/11/25 03:19:18;;;;;;;;;;;;;;;4.25;100.00;96666.73;65044;1281;6376539;-68
2023/11/25 03:22:21;;;;;;;;;;;;;;;4.21;100.00;96672.02;67602;1281;1016428;-69
2023/11/25 03:25:27;;;;;;;;;;;;;;;4.28;100.00;96675.70;67638;1281;1016699;-68
2023/11/25 03:28:29;;;;;;;;;;;;;;;4.17;100.00;96684.36;67621;1281;1016396;-68
2023/11/25 03:31:33;;;;;;;;;;;;;;;4.14;100.00;96682.84;67610;1281;1016498;-69
2023/11/25 03:34:35;;;;;;;;;;;;;;;4.13;100.00;96687.91;67587;1281;1016460;-68
2023/11/25 03:37:38;;;;;;;;;;;;;;;4.03;100.00;96692.60;67645;1281;1016418;-69
2023/11/25 03:40:40;;;;;;;;;;;;;;;4.00;100.00;96695.58;67593;1281;1018574;-69
2023/11/25 03:43:44;;;;;;;;;;;;;;;4.08;100.00;96690.42;67588;1281;1016460;-69
2023/11/25 03:46:47;;;;;;;;;;;;;;;4.02;100.00;96697.35;67576;1281;1016017;-69
2023/11/25 03:49:50;;;;;;;;;;;;;;;3.95;100.00;96699.73;67652;1281;1016124;-68
2023/11/25 03:52:53;;;;;;;;;;;;;;;3.97;100.00;96701.17;67630;1281;1016491;-69
2023/11/25 03:55:55;;;;;;;;;;;;;;;3.93;100.00;96704.05;67589;1281;1016215;-69
2023/11/25 03:58:58;;;;;;;;;;;;;;;3.95;100.00;96713.95;67628;1281;1016563;-69
2023/11/25 04:02:01;;;;;;;;;;;;;;;3.98;100.00;96726.14;67621;1281;1017344;-68
2023/11/25 04:05:04;;;;;;;;;;;;;;;3.94;100.00;96724.52;67612;1281;1016427;-68
2023/11/25 04:08:06;;;;;;;;;;;;;;;3.74;100.00;96730.02;67617;1281;1016441;-68
2023/11/25 04:11:09;;;;;;;;;;;;;;;3.74;100.00;96739.35;67597;1281;1016285;-68
2023/11/25 04:14:12;;;;;;;;;;;;;;;3.83;100.00;96745.16;67636;1281;1016488;-68
2023/11/25 04:17:14;;;;;;;;;;;;;;;3.75;100.00;96753.95;67639;1281;1016349;-69
2023/11/25 04:20:27;;;;;;;;;;;;;;;3.80;100.00;96754.16;67592;1281;1016412;-69
2023/11/25 04:23:31;;;;;;;;;;;;;;;3.75;100.00;96763.85;67596;1281;1016417;-69
2023/11/25 04:26:36;;;;;;;;;;;;;;;3.69;100.00;96769.73;67600;1281;1016153;-69
2023/11/25 04:29:38;;;;;;;;;;;;;;;3.68;100.00;96771.06;67623;1281;1015893;-69
2023/11/25 04:32:41;;;;;;;;;;;;;;;3.69;100.00;96774.93;67591;1281;1016459;-69
2023/11/25 04:35:44;;;;;;;;;;;;;;;3.73;100.00;96786.63;67604;1281;1016504;-68
2023/11/25 04:38:47;;;;;;;;;;;;;;;3.74;100.00;96793.95;67614;1281;1018720;-68
2023/11/25 04:41:49;;;;;;;;;;;;;;;3.63;100.00;96799.83;67580;1281;1016479;-69
2023/11/25 04:44:52;;;;;;;;;;;;;;;3.54;100.00;96812.58;67615;1281;1016204;-68
2023/11/25 04:47:55;;;;;;;;;;;;;;;3.41;100.00;96813.00;67616;1281;1016409;-69
2023/11/25 04:50:57;;;;;;;;;;;;;;;3.46;100.00;96820.29;67594;1281;1018217;-69
2023/11/25 04:54:01;;;;;;;;;;;;;;;3.52;100.00;96830.30;67615;1281;1016710;-68
2023/11/25 04:57:04;;;;;;;;;;;;;;;3.43;100.00;96843.80;67565;1281;1016246;-69
2023/11/25 05:00:09;;;;;;;;;;;;;;;3.44;100.00;96839.98;67641;1281;1017934;-68
2023/11/25 05:03:12;;;;;;;;;;;;;;;3.38;100.00;96848.14;67580;1281;1016310;-69
2023/11/25 05:06:15;;;;;;;;;;;;;;;3.35;100.00;96853.02;67613;1281;1016606;-69
2023/11/25 05:09:18;;;;;;;;;;;;;;;3.32;100.00;96860.40;67578;1281;1016670;-68
2023/11/25 05:12:21;;;;;;;;;;;;;;;3.37;100.00;96863.56;67601;1281;1016186;-69
2023/11/25 05:15:25;;;;;;;;;;;;;;;3.39;100.00;96866.56;67605;1281;1016828;-69
2023/11/25 05:18:27;;;;;;;;;;;;;;;3.37;100.00;96874.42;67584;1281;1016354;-68
2023/11/25 05:21:30;;;;;;;;;;;;;;;3.36;100.00;96878.16;67601;1281;1016132;-68
2023/11/25 05:24:32;;;;;;;;;;;;;;;3.33;100.00;96885.04;67618;1281;1016456;-68
2023/11/25 05:27:35;;;;;;;;;;;;;;;3.24;100.00;96890.11;67605;1281;1020097;-69
2023/11/25 05:30:38;;;;;;;;;;;;;;;3.03;100.00;96898.81;67591;1281;1018860;-69
2023/11/25 05:33:40;;;;;;;;;;;;;;;3.00;100.00;96901.45;67623;1281;1016846;-69
2023/11/25 05:36:43;;;;;;;;;;;;;;;3.00;100.00;96900.39;67607;1281;1016152;-69
2023/11/25 05:39:46;;;;;;;;;;;;;;;2.93;100.00;96905.80;67588;1281;1016015;-69
2023/11/25 05:42:53;;;;;;;;;;;;;;;2.98;100.00;96910.72;67620;1281;1016180;-69
2023/11/25 05:45:58;;;;;;;;;;;;;;;3.03;100.00;96918.88;67577;1281;1016030;-69
2023/11/25 05:49:01;;;;;;;;;;;;;;;3.08;100.00;96921.66;67618;1281;1016491;-69
2023/11/25 05:52:03;;;;;;;;;;;;;;;3.11;100.00;96916.08;67602;1281;1016419;-69
2023/11/25 05:55:06;;;;;;;;;;;;;;;3.04;100.00;96916.91;67601;1281;1016380;-69
2023/11/25 05:58:09;;;;;;;;;;;;;;;3.04;100.00;96921.55;67609;1281;1016357;-70
2023/11/25 06:01:12;;;;;;;;;;;;;;;3.02;100.00;96916.17;67566;1281;1016267;-69
2023/11/25 06:04:15;;;;;;;;;;;;;;;2.95;100.00;96919.17;67612;1281;1018024;-69
2023/11/25 06:07:17;;;;;;;;;;;;;;;2.75;100.00;96922.59;67601;1281;1016434;-69
2023/11/25 06:10:20;;;;;;;;;;;;;;;2.55;100.00;96926.02;67579;1281;1016870;-69
2023/11/25 06:13:22;;;;;;;;;;;;;;;2.49;100.00;96927.07;67590;1281;1016550;-68
2023/11/25 06:16:25;;;;;;;;;;;;;;;2.46;100.00;96934.98;67584;1281;1016486;-69
2023/11/25 06:19:29;;;;;;;;;;;;;;;2.48;100.00;96939.73;67596;1281;1016083;-69
2023/11/25 06:22:34;;;;;;;;;;;;;;;2.53;100.00;96945.29;67595;1281;1016458;-69
2023/11/25 06:25:36;;;;;;;;;;;;;;;2.61;100.00;96950.68;67603;1281;1016505;-69
2023/11/25 06:28:39;;;;;;;;;;;;;;;2.60;100.00;96959.89;67645;1281;1016154;-68
2023/11/25 06:31:44;;;;;;;;;;;;;;;2.67;100.00;96960.00;67604;1281;1016755;-65
2023/11/25 06:34:47;;;;;;;;;;;;;;;2.62;100.00;96970.49;67610;1281;1015941;-68
2023/11/25 06:37:49;;;;;;;;;;;;;;;2.72;100.00;96977.66;67649;1281;1016458;-69
2023/11/25 06:40:52;;;;;;;;;;;;;;;2.87;100.00;96986.45;67587;1281;1016433;-67
2023/11/25 06:43:54;;;;;;;;;;;;;;;2.88;100.00;96993.33;67603;1281;1016249;-69
2023/11/25 06:46:57;;;;;;;;;;;;;;;2.93;100.00;97001.64;67637;1281;1016523;-69
2023/11/25 06:49:59;;;;;;;;;;;;;;;3.00;100.00;97000.85;67598;1281;1016271;-68
2023/11/25 06:53:03;;;;;;;;;;;;;;;3.01;100.00;97009.81;67621;1281;1016502;-69
2023/11/25 06:56:06;;;;;;;;;;;;;;;2.99;100.00;97009.40;67576;1281;1016407;-69
2023/11/25 06:59:08;;;;;;;;;;;;;;;2.95;100.00;97014.85;67645;1281;1016202;-69
2023/11/25 07:02:18;;;;;;;;;;;;;;;3.05;100.00;97015.63;67612;1281;1016147;-68
2023/11/25 07:05:21;;;;;;;;;;;;;;;3.01;100.00;97019.34;67617;1281;1019460;-69
2023/11/25 07:08:24;;;;;;;;;;;;;;;3.01;100.00;97025.52;67610;1281;1016310;-69
2023/11/25 07:11:26;;;;;;;;;;;;;;;3.05;100.00;97029.79;67562;1281;1016263;-69
2023/11/25 07:14:29;;;;;;;;;;;;;;;3.08;100.00;97037.23;67633;1281;1016384;-69
2023/11/25 07:17:32;;;;;;;;;;;;;;;3.04;100.00;97037.80;67602;1281;1016581;-69
2023/11/25 07:20:35;;;;;;;;;;;;;;;3.13;100.00;97037.25;67619;1281;1016270;-69
2023/11/25 07:23:38;;;;;;;;;;;;;;;3.01;100.00;97038.97;67565;1281;1016411;-69
2023/11/25 07:26:42;;;;;;;;;;;;;;;3.00;100.00;97039.05;67562;1281;1017093;-69
2023/11/25 07:29:45;;;;;;;;;;;;;;;3.05;100.00;97048.05;67621;1281;1016472;-69
2023/11/25 07:32:48;;;;;;;;;;;;;;;3.09;100.00;97052.83;67630;1281;1016431;-69
2023/11/25 07:35:51;;;;;;;;;;;;;;;3.18;100.00;97057.87;67635;1281;1018329;-69
2023/11/25 07:38:54;;;;;;;;;;;;;;;3.16;100.00;97058.66;67591;1281;1015978;-69
2023/11/25 07:41:57;;;;;;;;;;;;;;;3.07;100.00;97061.10;67614;1281;1016175;-68
2023/11/25 07:45:00;;;;;;;;;;;;;;;3.04;100.00;97064.52;67584;1281;1016673;-69
2023/11/25 07:48:03;;;;;;;;;;;;;;;3.13;100.00;97063.00;67563;1281;1015915;-69
2023/11/25 07:51:05;;;;;;;;;;;;;;;3.13;100.00;97062.29;67634;1281;1018413;-68
2023/11/25 07:54:08;;;;;;;;;;;;;;;3.11;100.00;97071.39;67628;1281;1016341;-69
2023/11/25 07:57:11;;;;;;;;;;;;;;;3.20;100.00;97073.64;67630;1281;1017061;-69
2023/11/25 08:00:15;;;;;;;;;;;;;;;3.26;100.00;97079.48;67633;1281;1016523;-69
2023/11/25 08:03:18;;;;;;;;;;;;;;;3.15;100.00;97088.77;67639;1281;1016431;-69
2023/11/25 08:06:25;;;;;;;;;;;;;;;3.18;100.00;97094.80;67599;1281;1016713;-68
2023/11/25 08:09:28;;;;;;;;;;;;;;;3.30;100.00;97099.11;67617;1281;1016516;-68
2023/11/25 08:12:30;;;;;;;;;;;;;;;3.30;100.00;97099.15;67605;1281;1016812;-69
2023/11/25 08:15:33;;;;;;;;;;;;;;;3.33;100.00;97104.16;67577;1281;1018936;-69
2023/11/25 08:18:35;;;;;;;;;;;;;;;3.37;100.00;97104.25;67613;1281;1016497;-68
2023/11/25 08:21:38;;;;;;;;;;;;;;;3.40;100.00;97105.97;67625;1281;1016343;-68
2023/11/25 08:24:40;;;;;;;;;;;;;;;3.56;100.00;97105.36;67605;1281;1016309;-69
2023/11/25 08:27:43;;;;;;;;;;;;;;;3.61;100.00;97108.02;67598;1281;1018048;-69
2023/11/25 08:30:46;;;;;;;;;;;;;;;3.65;100.00;97114.34;67644;1281;1016454;-69
2023/11/25 08:33:48;;;;;;;;;;;;;;;3.67;100.00;97123.52;67621;1281;1016408;-68
2023/11/25 08:36:53;;;;;;;;;;;;;;;3.68;100.00;97125.90;67607;1281;1016248;-69
2023/11/25 08:39:56;;;;;;;;;;;;;;;3.71;100.00;97134.23;67616;1281;1016443;-70
2023/11/25 08:43:01;;;;;;;;;;;;;;;3.83;100.00;97137.27;67609;1281;1018354;-69
2023/11/25 08:46:04;;;;;;;;;;;;;;;3.77;100.00;97140.91;67636;1281;1015786;-68
2023/11/25 08:49:07;;;;;;;;;;;;;;;3.84;100.00;97147.79;67575;1281;1016608;-69
2023/11/25 08:52:10;;;;;;;;;;;;;;;3.84;100.00;97155.20;67621;1281;1016496;-69
2023/11/25 08:55:17;;;;;;;;;;;;;;;3.80;100.00;97166.86;67618;1281;1016069;-69
2023/11/25 08:58:19;;;;;;;;;;;;;;;3.87;100.00;97171.14;67590;1281;1015982;-69
2023/11/25 09:01:24;;;;;;;;;;;;;;;3.92;100.00;97169.77;67608;1281;1016377;-69
2023/11/25 09:04:32;;;;;;;;;;;;;;;4.11;100.00;97173.33;67574;1281;1016896;-69
2023/11/25 09:07:35;;;;;;;;;;;;;;;4.20;100.00;97178.66;67631;1281;1016459;-69
2023/11/25 09:10:37;;;;;;;;;;;;;;;4.29;100.00;97178.06;67593;1281;1016492;-69
2023/11/25 09:13:40;;;;;;;;;;;;;;;4.27;100.00;97178.58;67629;1281;1018904;-68
2023/11/25 09:16:43;;;;;;;;;;;;;;;4.31;100.00;97179.69;67617;1281;1016311;-69
2023/11/25 09:19:46;;;;;;;;;;;;;;;4.23;100.00;97182.27;67584;1281;1016259;-69
2023/11/25 09:22:48;;;;;;;;;;;;;;;4.05;100.00;97185.46;67619;1281;1016390;-69
2023/11/25 09:25:51;;;;;;;;;;;;;;;4.07;100.00;97190.48;67597;1281;1016150;-68
2023/11/25 09:28:54;;;;;;;;;;;;;;;4.07;100.00;97193.27;67599;1281;1018190;-69
2023/11/25 09:31:57;;;;;;;;;;;;;;;4.39;100.00;97192.20;67591;1281;1016364;-68
2023/11/25 09:35:00;;;;;;;;;;;;;;;4.77;100.00;97195.54;67599;1281;1016311;-69
2023/11/25 09:38:03;;;;;;;;;;;;;;;4.76;100.00;97197.84;67642;1281;1016436;-69
2023/11/25 09:41:06;;;;;;;;;;;;;;;4.70;100.00;97196.86;67606;1281;1016280;-67
2023/11/25 09:44:08;;;;;;;;;;;;;;;4.54;100.00;97200.42;67601;1281;1016404;-70
2023/11/25 09:47:11;;;;;;;;;;;;;;;4.48;100.00;97195.98;67581;1281;1016001;-69
2023/11/25 09:50:14;;;;;;;;;;;;;;;4.52;100.00;97196.59;67564;1281;1016372;-68
2023/11/25 09:53:17;;;;;;;;;;;;;;;4.49;100.00;97199.73;67621;1281;1016427;-69
2023/11/25 09:56:20;;;;;;;;;;;;;;;4.45;100.00;97201.84;67592;1281;1016199;-68
2023/11/25 09:59:23;;;;;;;;;;;;;;;4.45;100.00;97202.73;67614;1281;1016434;-69
2023/11/25 10:02:26;;;;;;;;;;;;;;;4.41;100.00;97208.38;67597;1281;1016277;-67
2023/11/25 10:05:28;;;;;;;;;;;;;;;4.42;100.00;97206.02;67587;1281;1016402;-69
2023/11/25 10:08:32;;;;;;;;;;;;;;;4.48;100.00;97206.68;67615;1281;1016207;-69
2023/11/25 10:11:35;;;;;;;;;;;;;;;4.50;100.00;97215.20;67628;1281;1016440;-69
2023/11/25 10:14:38;;;;;;;;;;;;;;;4.64;100.00;97213.16;67583;1281;1017191;-69
2023/11/25 10:17:40;;;;;;;;;;;;;;;4.78;100.00;97212.64;67605;1281;1016447;-68
2023/11/25 10:20:43;;;;;;;;;;;;;;;4.77;100.00;97218.37;67633;1281;1016520;-68
2023/11/25 10:23:46;;;;;;;;;;;;;;;4.72;100.00;97215.73;67618;1281;1016383;-69
2023/11/25 10:26:49;;;;;;;;;;;;;;;4.70;100.00;97225.76;67574;1281;1016375;-69
2023/11/25 10:29:52;;;;;;;;;;;;;;;4.64;100.00;97218.68;67592;1281;1016479;-71
2023/11/25 10:32:56;;;;;;;;;;;;;;;4.68;100.00;97219.30;67609;1281;1016432;-67
2023/11/25 10:35:59;;;;;;;;;;;;;;;4.63;100.00;97223.95;67589;1281;1016701;-69
2023/11/25 10:39:03;;;;;;;;;;;;;;;4.59;100.00;97222.31;67548;1281;1015951;-70
2023/11/25 10:42:07;;;;;;;;;;;;;;;4.58;100.00;97216.98;67705;1283;1016473;-70
2023/11/25 10:45:11;;;;;;;;;;;;;;;4.46;100.00;97223.07;67606;1283;1016118;-69
2023/11/25 10:48:13;;;;;;;;;;;;;;;4.55;100.00;97224.45;67561;1283;1016424;-69
2023/11/25 10:51:16;;;;;;;;;;;;;;;4.54;100.00;97225.02;67531;1283;1016488;-69
2023/11/25 10:54:19;;;;;;;;;;;;;;;4.59;100.00;97226.25;67405;1283;1016496;-70
2023/11/25 10:57:23;;;;;;;;;;;;;;;4.68;100.00;97219.62;67408;1283;1016353;-69
2023/11/25 11:00:26;;;;;;;;;;;;;;;4.74;100.00;97213.73;67491;1283;1016794;-70
2023/11/25 11:03:28;;;;;;;;;;;;;;;4.72;100.00;97219.54;67416;1283;1018834;-70
2023/11/25 11:06:31;;;;;;;;;;;;;;;4.76;100.00;97213.95;67400;1282;1016595;-70
2023/11/25 11:09:34;;;;;;;;;;;;;;;4.69;100.00;97212.52;67467;1283;1016429;-70
2023/11/25 11:12:37;;;;;;;;;;;;;;;4.55;100.00;97214.77;67488;1283;1016007;-71
2023/11/25 11:15:39;;;;;;;;;;;;;;;4.56;100.00;97213.12;67497;1283;1016289;-70
2023/11/25 11:18:42;;;;;;;;;;;;;;;4.61;100.00;97211.29;67536;1283;1019249;-70
2023/11/25 11:21:45;;;;;;;;;;;;;;;4.61;100.00;97214.06;67494;1283;1016433;-70
2023/11/25 11:24:47;;;;;;;;;;;;;;;4.55;100.00;97228.56;67509;1283;1016699;-70
2023/11/25 11:27:50;;;;;;;;;;;;;;;4.52;100.00;97220.82;67537;1282;1016429;-70
2023/11/25 11:30:53;;;;;;;;;;;;;;;4.48;100.00;97217.07;67514;1283;1016493;-70
2023/11/25 11:33:55;;;;;;;;;;;;;;;4.52;100.00;97220.48;67540;1283;1016462;-69
2023/11/25 11:36:58;;;;;;;;;;;;;;;4.60;100.00;97220.66;67528;1283;1016589;-71
2023/11/25 11:40:04;;;;;;;;;;;;;;;4.89;100.00;97228.01;67513;1283;1016532;-71
2023/11/25 11:43:08;;;;;;;;;;;;;;;4.92;100.00;97227.50;67516;1283;1016528;-70
2023/11/25 11:46:11;;;;;;;;;;;;;;;4.82;100.00;97225.67;67466;1283;1016504;-70
2023/11/25 11:49:14;;;;;;;;;;;;;;;4.75;100.00;97232.70;67536;1283;1017457;-70
2023/11/25 11:52:16;;;;;;;;;;;;;;;4.84;100.00;97222.95;67526;1283;1016497;-70
2023/11/25 11:55:19;;;;;;;;;;;;;;;4.78;100.00;97221.29;67505;1283;1016494;-69
2023/11/25 11:58:21;;;;;;;;;;;;;;;4.71;100.00;97221.73;67480;1283;1015819;-69
2023/11/25 12:01:24;;;;;;;;;;;;;;;4.80;100.00;97214.20;67509;1283;1016411;-70
2023/11/25 12:04:26;;;;;;;;;;;;;;;4.83;100.00;97220.29;67529;1283;1016528;-70
2023/11/25 12:07:30;;;;;;;;;;;;;;;4.64;100.00;97231.52;67499;1282;1016462;-70
2023/11/25 12:10:33;;;;;;;;;;;;;;;4.44;100.00;97230.98;67493;1282;1016372;-70
2023/11/25 12:13:36;;;;;;;;;;;;;;;4.48;100.00;97226.77;67495;1283;1016285;-70
2023/11/25 12:16:39;;;;;;;;;;;;;;;4.48;100.00;97230.41;67514;1283;1016469;-69
2023/11/25 12:19:42;;;;;;;;;;;;;;;4.31;100.00;97232.81;67513;1283;1016937;-70
2023/11/25 12:22:44;;;;;;;;;;;;;;;4.28;100.00;97224.03;67515;1283;1016464;-71
2023/11/25 12:25:47;;;;;;;;;;;;;;;4.34;100.00;97226.73;67511;1283;1016424;-68
2023/11/25 12:28:50;;;;;;;;;;;;;;;4.39;100.00;97222.15;67477;1282;1016393;-70
2023/11/25 12:31:52;;;;;;;;;;;;;;;4.28;100.00;97225.75;67496;1283;1016138;-70
2023/11/25 12:34:55;;;;;;;;;;;;;;;4.40;100.00;97221.36;67514;1283;1016016;-70
2023/11/25 12:37:58;;;;;;;;;;;;;;;4.44;100.00;97235.66;67514;1282;1016465;-70
2023/11/25 12:41:01;;;;;;;;;;;;;;;4.46;100.00;97226.70;67488;1282;1016760;-70
2023/11/25 12:44:04;;;;;;;;;;;;;;;4.46;100.00;97222.23;67520;1283;1015986;-70
2023/11/25 12:47:08;;;;;;;;;;;;;;;4.42;100.00;97224.89;67488;1282;1016530;-70
2023/11/25 12:50:11;;;;;;;;;;;;;;;4.38;100.00;97229.48;67506;1282;1016970;-70
2023/11/25 12:53:14;;;;;;;;;;;;;;;4.31;100.00;97237.48;67501;1282;1015900;-69
2023/11/25 12:56:17;;;;;;;;;;;;;;;4.13;100.00;97232.16;67514;1283;1016443;-70
2023/11/25 12:59:20;;;;;;;;;;;;;;;4.04;100.00;97234.77;67506;1283;1016494;-69
2023/11/25 13:02:22;;;;;;;;;;;;;;;4.04;100.00;97236.85;67495;1282;1017980;-70
2023/11/25 13:05:25;;;;;;;;;;;;;;;4.10;100.00;97239.96;67508;1283;1016094;-69
2023/11/25 13:08:28;;;;;;;;;;;;;;;3.88;100.00;97241.25;67537;1283;1016482;-70
2023/11/25 13:11:31;;;;;;;;;;;;;;;3.75;100.00;97242.71;67520;1282;1016561;-69
2023/11/25 13:14:35;;;;;;;;;;;;;;;3.80;100.00;97241.76;67485;1282;1016599;-70
2023/11/25 13:17:38;;;;;;;;;;;;;;;3.97;100.00;97243.36;67525;1283;1016446;-70
2023/11/25 13:20:40;;;;;;;;;;;;;;;3.99;100.00;97240.27;67491;1283;1016424;-70
2023/11/25 13:23:43;;;;;;;;;;;;;;;3.97;100.00;97251.47;67510;1282;1018496;-70
2023/11/25 13:26:46;;;;;;;;;;;;;;;3.89;100.00;97247.27;67507;1283;1016472;-70
2023/11/25 13:29:48;;;;;;;;;;;;;;;3.83;100.00;97249.70;67487;1283;1016922;-69
2023/11/25 13:32:51;;;;;;;;;;;;;;;3.84;100.00;97249.45;67506;1282;1016311;-70
2023/11/25 13:35:53;;;;;;;;;;;;;;;3.97;100.00;97249.23;67537;1283;1016268;-70
2023/11/25 13:38:56;;;;;;;;;;;;;;;3.89;100.00;97252.95;67484;1283;1016425;-70
2023/11/25 13:41:59;;;;;;;;;;;;;;;3.91;100.00;97256.86;67468;1282;1016342;-70
2023/11/25 13:45:04;;;;;;;;;;;;;;;3.86;100.00;97263.68;67514;1283;1016497;-70
2023/11/25 13:48:06;;;;;;;;;;;;;;;3.88;100.00;97266.36;67487;1282;1016397;-69
2023/11/25 13:51:09;;;;;;;;;;;;;;;3.81;100.00;97264.67;67532;1282;1016570;-70
2023/11/25 13:54:12;;;;;;;;;;;;;;;3.80;100.00;97264.73;67513;1282;1016529;-70
2023/11/25 13:57:14;;;;;;;;;;;;;;;3.73;100.00;97272.55;67455;1283;1016510;-70
2023/11/25 14:00:18;;;;;;;;;;;;;;;3.70;100.00;97267.89;67511;1283;1017470;-69
2023/11/25 14:03:21;;;;;;;;;;;;;;;3.65;100.00;97277.86;67510;1283;1016426;-71
2023/11/25 14:06:25;;;;;;;;;;;;;;;3.57;100.00;97274.71;67544;1282;1016009;-70
2023/11/25 14:09:27;;;;;;;;;;;;;;;3.56;100.00;97276.66;67513;1283;1016198;-70
2023/11/25 14:12:30;;;;;;;;;;;;;;;3.55;100.00;97278.95;67525;1282;1016490;-69
2023/11/25 14:15:33;;;;;;;;;;;;;;;3.58;100.00;97280.52;67487;1282;1018115;-68
2023/11/25 14:18:35;;;;;;;;;;;;;;;3.58;100.00;97284.52;67522;1283;1015854;-70
2023/11/25 14:21:38;;;;;;;;;;;;;;;3.56;100.00;97296.36;67496;1283;1016404;-70
2023/11/25 14:24:41;;;;;;;;;;;;;;;3.59;100.00;97294.66;67471;1283;1016665;-70
2023/11/25 14:27:43;;;;;;;;;;;;;;;3.64;100.00;97296.75;67499;1282;1015790;-69
2023/11/25 14:30:46;;;;;;;;;;;;;;;3.49;100.00;97299.48;67489;1283;1016411;-70
2023/11/25 14:33:48;;;;;;;;;;;;;;;3.55;100.00;97304.70;67514;1282;1016419;-69
2023/11/25 14:36:51;;;;;;;;;;;;;;;3.72;100.00;97308.79;67467;1282;1016083;-70
2023/11/25 14:39:54;;;;;;;;;;;;;;;3.71;100.00;97309.14;67480;1283;1016214;-69
2023/11/25 14:42:56;;;;;;;;;;;;;;;3.64;100.00;97311.98;67524;1283;1016605;-70
2023/11/25 14:46:00;;;;;;;;;;;;;;;3.65;100.00;97309.15;67487;1282;1016503;-70
2023/11/25 14:49:04;;;;;;;;;;;;;;;3.71;100.00;97310.04;67511;1283;1016294;-70
2023/11/25 14:52:07;;;;;;;;;;;;;;;3.74;100.00;97310.02;67487;1283;1016384;-69
2023/11/25 14:55:11;;;;;;;;;;;;;;;3.79;100.00;97307.31;67499;1283;1016358;-69
2023/11/25 14:58:13;;;;;;;;;;;;;;;3.76;100.00;97302.83;67488;1282;1016410;-70
2023/11/25 15:01:16;;;;;;;;;;;;;;;3.80;100.00;97306.77;67524;1282;1017458;-69
2023/11/25 15:04:19;;;;;;;;;;;;;;;3.74;100.00;97311.08;67529;1283;1016323;-69
2023/11/25 15:07:21;;;;;;;;;;;;;;;3.70;100.00;97311.64;67468;1282;1016144;-68
2023/11/25 15:10:25;;;;;;;;;;;;;;;3.65;100.00;97313.15;67507;1283;1016440;-69
2023/11/25 15:13:28;;;;;;;;;;;;;;;3.63;100.00;97312.75;67471;1283;1016411;-69
2023/11/25 15:16:30;;;;;;;;;;;;;;;3.55;100.00;97313.02;67537;1282;1017737;-69
2023/11/25 15:19:33;;;;;;;;;;;;;;;3.52;100.00;97317.34;65067;1282;5398219;-69
2023/11/25 15:22:36;;;;;;;;;;;;;;;3.57;100.00;97319.84;67509;1282;1016504;-68
2023/11/25 15:25:39;;;;;;;;;;;;;;;3.48;100.00;97318.23;67479;1283;1016236;-69
2023/11/25 15:28:42;;;;;;;;;;;;;;;3.46;100.00;97314.34;67477;1282;1016128;-69